MEB weather

Melbourne Essendon Airport
Victoria, Australia

Public forecast

Using degrees Celsius for public forecast. Weather courtesy of forecast.io.

METAR (pilot weather report)

Retrieved 2018/11/17 01:00 UTC (52 minutes ago):

YMEN 170100Z AUTO 18014KT 9999 // NCD 17/07 Q1024

TAF (pilot weather forecast)

Forecast is more than 12 hours old.

Closest forecast is Melbourne International Airport, 4.3 nm (8.0 km) NW. Retrieved 2018/11/16 12:33 UTC (13 hours ago):

TAF YMML 161105Z 1612/1718 18008KT 9999 BKN030 FM162300 17015G25KT 9999 FEW035 FM170900 19009KT CAVOK FM171500 27006KT 9999 SCT008 PROB30 1717/1718 5000 BR BKN008